createdAt,value
2022-11-19T00:00:10.214Z,16.80
2022-11-19T00:03:06.756Z,19.42
2022-11-19T00:07:17.419Z,18.33
2022-11-19T00:10:29.358Z,19.70
2022-11-19T00:16:35.767Z,15.98
2022-11-19T00:19:51.723Z,17.73
2022-11-19T00:28:27.093Z,17.50
2022-11-19T00:31:24.586Z,16.23
2022-11-19T00:55:33.625Z,21.67
2022-11-19T00:59:28.952Z,21.20
2022-11-19T01:08:10.894Z,20.95
2022-11-19T01:11:45.344Z,19.70
2022-11-19T01:14:36.546Z,23.38
2022-11-19T01:17:24.864Z,24.70
2022-11-19T01:20:19.824Z,26.77
2022-11-19T01:23:11.662Z,27.25
2022-11-19T01:26:01.409Z,26.60
2022-11-19T01:28:50.304Z,25.23
2022-11-19T01:31:39.014Z,27.92
2022-11-19T01:34:27.948Z,27.42
2022-11-19T01:37:16.137Z,33.33
2022-11-19T01:40:07.868Z,26.50
2022-11-19T01:42:56.005Z,29.45
2022-11-19T01:45:49.541Z,28.50
2022-11-19T01:48:55.619Z,31.75
2022-11-19T01:51:57.141Z,31.33
2022-11-19T01:54:51.448Z,30.77
2022-11-19T01:57:41.767Z,29.45
2022-11-19T02:00:33.008Z,29.75
2022-11-19T02:03:21.780Z,29.55
2022-11-19T02:06:19.080Z,29.77
2022-11-19T02:09:07.598Z,28.67
2022-11-19T02:12:24.643Z,27.77
2022-11-19T02:15:32.887Z,30.98
2022-11-19T02:18:50.686Z,34.38
2022-11-19T02:21:49.211Z,30.00
2022-11-19T02:24:55.926Z,30.92
2022-11-19T02:28:43.392Z,34.90
2022-11-19T02:31:55.648Z,39.45
2022-11-19T02:35:39.236Z,33.42
2022-11-19T02:38:49.632Z,35.22
2022-11-19T02:42:33.855Z,32.17
2022-11-19T02:45:33.935Z,38.20
2022-11-19T02:48:30.157Z,35.42
2022-11-19T02:51:19.816Z,36.58
2022-11-19T02:54:08.760Z,42.70
2022-11-19T02:57:02.827Z,32.47
2022-11-19T03:00:17.891Z,30.75
2022-11-19T03:03:38.576Z,37.83
2022-11-19T03:06:29.306Z,37.15
2022-11-19T03:09:18.074Z,34.13
2022-11-19T03:12:35.152Z,35.15
2022-11-19T03:16:02.365Z,36.22
2022-11-19T03:19:15.530Z,31.77
2022-11-19T03:22:18.303Z,35.38
2022-11-19T03:25:59.870Z,33.67
2022-11-19T03:28:49.905Z,32.78
2022-11-19T03:31:44.027Z,33.58
2022-11-19T03:34:33.937Z,35.63
2022-11-19T03:37:25.437Z,38.58
2022-11-19T03:40:16.052Z,35.38
2022-11-19T03:43:08.192Z,32.97
2022-11-19T03:45:58.748Z,34.70
2022-11-19T03:48:51.300Z,33.38
2022-11-19T03:51:49.107Z,28.23
2022-11-19T03:54:39.311Z,34.53
2022-11-19T03:57:27.683Z,34.55
2022-11-19T04:00:16.479Z,33.20
2022-11-19T04:03:07.730Z,35.50
2022-11-19T04:05:55.862Z,35.30
2022-11-19T04:08:47.764Z,39.00
2022-11-19T04:11:35.918Z,35.25
2022-11-19T04:14:23.873Z,33.83
2022-11-19T04:17:11.933Z,43.83
2022-11-19T04:20:09.018Z,42.55
2022-11-19T04:22:57.483Z,45.40
2022-11-19T04:25:56.816Z,45.95
2022-11-19T04:28:44.679Z,46.42
2022-11-19T04:31:33.395Z,42.55
2022-11-19T04:34:21.218Z,44.25
2022-11-19T04:37:09.289Z,45.90
2022-11-19T04:39:57.222Z,42.17
2022-11-19T04:42:45.349Z,45.38
2022-11-19T04:45:33.625Z,53.58
2022-11-19T04:48:21.485Z,50.10
2022-11-19T04:51:12.693Z,55.92
2022-11-19T04:54:00.608Z,59.05
2022-11-19T04:56:48.711Z,64.68
2022-11-19T04:59:37.063Z,59.50
2022-11-19T05:02:24.987Z,62.53
2022-11-19T05:05:12.969Z,61.83
2022-11-19T05:08:00.873Z,66.55
2022-11-19T05:10:49.020Z,64.53
2022-11-19T05:13:37.286Z,67.40
2022-11-19T05:16:25.559Z,75.05
2022-11-19T05:19:13.575Z,70.25
2022-11-19T05:22:01.523Z,68.20
2022-11-19T05:24:49.400Z,68.72
2022-11-19T05:27:37.305Z,77.40
2022-11-19T05:30:25.272Z,77.32
2022-11-19T05:33:13.149Z,73.47
2022-11-19T05:36:01.533Z,66.05
2022-11-19T05:38:49.323Z,68.63
2022-11-19T05:41:40.217Z,63.35
2022-11-19T05:44:28.243Z,76.35
2022-11-19T05:47:17.532Z,70.38
2022-11-19T05:50:06.036Z,59.63
2022-11-19T05:52:54.084Z,61.97
2022-11-19T05:55:42.194Z,67.75
2022-11-19T05:58:30.695Z,59.08
2022-11-19T06:01:26.316Z,61.25
2022-11-19T06:04:14.447Z,57.83
2022-11-19T06:07:02.448Z,56.50
2022-11-19T06:09:50.629Z,52.65
2022-11-19T06:12:44.122Z,52.05
2022-11-19T06:15:33.590Z,51.33
2022-11-19T06:18:21.789Z,52.28
2022-11-19T06:21:12.332Z,56.83
2022-11-19T06:24:00.458Z,46.15
2022-11-19T06:26:48.668Z,46.03
2022-11-19T06:29:36.716Z,38.60
2022-11-19T06:32:24.954Z,54.13
2022-11-19T06:35:14.519Z,45.72
2022-11-19T06:38:02.681Z,46.58
2022-11-19T06:40:50.635Z,41.97
2022-11-19T06:43:38.963Z,50.75
2022-11-19T06:46:29.221Z,47.60
2022-11-19T06:49:20.287Z,50.03
2022-11-19T06:52:09.116Z,49.03
2022-11-19T06:54:57.125Z,50.70
2022-11-19T06:57:45.229Z,50.13
2022-11-19T07:00:34.567Z,47.13
2022-11-19T07:03:22.838Z,41.90
2022-11-19T07:06:10.989Z,45.15
2022-11-19T07:08:59.347Z,42.85
2022-11-19T07:11:47.478Z,39.10
2022-11-19T07:14:36.216Z,38.10
2022-11-19T07:17:24.653Z,45.08
2022-11-19T07:20:13.321Z,40.70
2022-11-19T07:23:04.132Z,34.80
2022-11-19T07:25:53.160Z,40.50
2022-11-19T07:28:42.247Z,38.92
2022-11-19T07:31:33.541Z,38.17
2022-11-19T07:34:22.043Z,36.63
2022-11-19T07:37:13.476Z,32.88
2022-11-19T07:40:02.260Z,33.75
2022-11-19T07:42:59.344Z,35.42
2022-11-19T07:45:50.408Z,37.28
2022-11-19T07:48:38.525Z,35.58
2022-11-19T07:51:27.199Z,30.08
2022-11-19T07:54:15.574Z,35.22
2022-11-19T07:57:03.782Z,35.70
2022-11-19T07:59:51.967Z,38.65
2022-11-19T08:02:42.934Z,32.97
2022-11-19T08:05:31.209Z,29.42
2022-11-19T08:08:19.359Z,36.20
2022-11-19T08:11:09.530Z,41.50
2022-11-19T08:14:03.090Z,37.90
2022-11-19T08:17:12.577Z,36.10
2022-11-19T08:20:00.728Z,38.42
2022-11-19T08:22:52.076Z,35.08
2022-11-19T08:25:43.149Z,33.67
2022-11-19T08:28:34.404Z,36.53
2022-11-19T08:31:22.965Z,37.80
2022-11-19T08:34:42.146Z,37.20
2022-11-19T08:37:33.711Z,36.97
2022-11-19T08:40:23.019Z,37.22
2022-11-19T08:43:11.088Z,37.65
2022-11-19T08:45:59.654Z,43.80
2022-11-19T08:48:59.145Z,38.03
2022-11-19T08:51:47.259Z,50.55
2022-11-19T08:54:35.609Z,38.53
2022-11-19T08:57:24.358Z,41.88
2022-11-19T09:00:14.258Z,43.10
2022-11-19T09:03:02.298Z,47.85
2022-11-19T09:05:50.446Z,38.03
2022-11-19T09:08:39.584Z,41.75
2022-11-19T09:11:27.564Z,41.80
2022-11-19T09:14:15.527Z,53.53
2022-11-19T09:17:03.927Z,57.53
2022-11-19T09:19:51.794Z,49.72
2022-11-19T09:22:39.768Z,46.35
2022-11-19T09:25:29.432Z,46.15
2022-11-19T09:28:17.388Z,46.20
2022-11-19T09:31:18.455Z,37.35
2022-11-19T09:34:06.406Z,47.00
2022-11-19T09:36:54.413Z,37.38
2022-11-19T09:39:42.216Z,45.03
2022-11-19T09:43:04.383Z,48.10
2022-11-19T09:46:38.198Z,54.70
2022-11-19T09:49:47.026Z,42.95
2022-11-19T09:53:03.112Z,53.17
2022-11-19T09:55:57.419Z,47.55
2022-11-19T09:58:46.119Z,43.03
2022-11-19T10:01:35.941Z,46.97
2022-11-19T10:04:28.214Z,43.92
2022-11-19T10:07:31.453Z,41.50
2022-11-19T10:10:38.525Z,46.97
2022-11-19T10:13:38.570Z,56.25
2022-11-19T10:16:58.396Z,40.97
2022-11-19T10:20:33.353Z,44.55
2022-11-19T10:23:50.238Z,44.53
2022-11-19T10:26:42.527Z,49.60
2022-11-19T10:29:35.126Z,42.35
2022-11-19T10:33:12.881Z,43.95
2022-11-19T10:36:13.202Z,42.88
2022-11-19T10:39:19.004Z,45.80
2022-11-19T10:42:37.258Z,44.38
2022-11-19T10:45:29.002Z,43.40
2022-11-19T10:48:46.930Z,45.40
2022-11-19T10:51:43.016Z,42.30
2022-11-19T10:54:32.051Z,45.72
2022-11-19T10:57:21.803Z,37.28
2022-11-19T11:00:11.397Z,41.90
2022-11-19T11:03:05.149Z,42.78
2022-11-19T11:06:07.062Z,40.78
2022-11-19T11:08:59.432Z,43.38
2022-11-19T11:12:06.341Z,41.00
2022-11-19T11:14:59.531Z,39.78
2022-11-19T11:18:00.231Z,42.57
2022-11-19T11:20:50.401Z,46.55
2022-11-19T11:23:56.456Z,48.45
2022-11-19T11:26:44.919Z,54.83
2022-11-19T11:29:36.155Z,41.83
2022-11-19T11:32:30.896Z,47.03
2022-11-19T11:35:38.739Z,41.65
2022-11-19T11:38:28.201Z,44.55
2022-11-19T11:42:04.948Z,37.22
2022-11-19T11:44:59.657Z,45.72
2022-11-19T11:47:50.287Z,43.33
2022-11-19T11:50:39.048Z,42.15
2022-11-19T11:53:34.005Z,43.53
2022-11-19T11:56:26.693Z,39.90
2022-11-19T11:59:27.906Z,43.47
2022-11-19T12:02:33.642Z,43.03
2022-11-19T12:05:22.170Z,39.72
2022-11-19T12:08:45.861Z,44.38
2022-11-19T12:12:00.380Z,46.58
2022-11-19T12:18:13.187Z,36.72
2022-11-19T12:21:31.447Z,42.47
2022-11-19T12:25:05.616Z,44.50
2022-11-19T12:28:56.178Z,41.73
2022-11-19T12:32:08.609Z,42.10
2022-11-19T12:35:10.042Z,40.90
2022-11-19T12:38:40.285Z,42.42
2022-11-19T12:42:24.244Z,39.92
2022-11-19T12:46:09.260Z,38.58
2022-11-19T12:49:21.731Z,41.60
2022-11-19T12:53:14.587Z,44.08
2022-11-19T12:56:24.800Z,38.80
2022-11-19T12:59:39.716Z,42.38
2022-11-19T13:02:35.844Z,41.30
2022-11-19T13:06:02.741Z,41.70
2022-11-19T13:09:04.537Z,45.65
2022-11-19T13:12:19.516Z,37.35
2022-11-19T13:15:33.773Z,40.03
2022-11-19T13:18:45.135Z,37.13
2022-11-19T13:22:50.902Z,40.53
2022-11-19T13:41:21.248Z,38.50
2022-11-19T13:48:56.731Z,41.95
2022-11-19T16:03:57.760Z,36.80
2022-11-19T16:10:13.782Z,34.05
2022-11-19T16:13:45.082Z,32.85
2022-11-19T16:21:57.425Z,34.10
2022-11-19T16:24:10.661Z,31.48
2022-11-19T16:27:25.879Z,30.20
2022-11-19T16:30:24.842Z,34.53
2022-11-19T16:33:30.399Z,30.98
2022-11-19T16:37:09.055Z,34.97
2022-11-19T16:40:23.915Z,38.03
2022-11-19T16:43:31.713Z,32.95
2022-11-19T16:50:42.335Z,34.58
2022-11-19T16:57:08.886Z,30.17
2022-11-19T17:01:01.267Z,33.47
2022-11-19T17:04:23.382Z,32.67
2022-11-19T17:12:11.138Z,32.42
2022-11-19T17:15:40.480Z,33.45
2022-11-19T17:22:13.707Z,34.17
2022-11-19T17:25:27.240Z,38.88
2022-11-19T17:28:50.470Z,37.75
2022-11-19T17:36:28.577Z,38.15
2022-11-19T17:39:45.204Z,35.78
2022-11-19T17:56:46.016Z,33.55
2022-11-19T18:30:10.058Z,38.03
2022-11-19T18:33:30.672Z,36.60
2022-11-19T19:13:33.628Z,34.50
2022-11-19T19:25:20.734Z,35.88
2022-11-19T19:29:05.188Z,34.47
2022-11-19T19:44:15.561Z,38.35
2022-11-19T19:47:21.899Z,35.35
2022-11-19T19:50:37.815Z,37.88
2022-11-19T20:09:19.888Z,36.88
2022-11-19T20:23:38.557Z,34.70
2022-11-19T21:29:24.283Z,36.72
2022-11-19T22:00:35.953Z,32.97
2022-11-19T22:12:27.000Z,32.03
2022-11-19T22:31:03.989Z,28.27
2022-11-19T22:39:21.398Z,34.70
2022-11-19T23:04:32.995Z,38.42
